Flight Track Log - Related Links

Times and Time Zones

All times are in EDT time to prevent confusion due to time zone crossing. See the PDT4198 flight status page for this flight to view local times or setup timezone preferences in your user account.

Time Position Orientation Groundspeed Altitude Reporting Facility
EDT Latitude Longitude Course Direction KTS MPH feet Rate Location/Type
Thu 12:59:13 PM 35.1908 -80.9331 90° East 153 176 1,500  Level Atlanta Center
Thu 01:00:14 PM 35.1811 -80.8828 103° East 175 201 2,900 1,417 Climbing Atlanta Center
Thu 01:01:20 PM 35.1875 -80.8111 84° East 187 215 4,500 1,134 Climbing Atlanta Center
Thu 01:02:21 PM 35.1919 -80.7400 86° East 209 241 5,300 1,000 Climbing Atlanta Center
Thu 01:03:44 PM 35.1956 -80.6458 87° East 228 262 6,900 1,175 Climbing Atlanta Center
Thu 01:04:00 PM 35.2000 -80.4692 90° East  Level FlightAware Approximate
Thu 01:04:44 PM 35.1975 -80.5644 88° East 228 262 8,100  Level Atlanta Center
Thu 01:05:44 PM 35.1975 -80.4881 90° East 228 262 9,400 1,300 Climbing Atlanta Center
Thu 01:06:44 PM 35.1992 -80.4067 89° East 228 262 10,700 1,200 Climbing Atlanta Center
Thu 01:07:44 PM 35.2011 -80.3278 88° East 228 262 11,800 1,100 Climbing Atlanta Center
Thu 01:08:44 PM 35.2008 -80.2492 90° East 228 262 12,900 424 Climbing Atlanta Center
Thu 01:10:34 PM 35.2058 -80.0836 88° East 273 314 13,000 36 Climbing Washington Center
Thu 01:11:32 PM 35.2094 -79.9847 87° East 268 308 13,000 50 Level Washington Center
Thu 01:12:33 PM 35.2089 -79.8881 90° East 274 315 13,100 50 Climbing Washington Center
Thu 01:13:33 PM 35.2103 -79.7864 89° East 287 330 13,100  Level Washington Center
Thu 01:14:32 PM 35.2139 -79.6875 87° East 287 330 13,100  Level Washington Center
Thu 01:15:32 PM 35.2025 -79.5903 98° East 287 330 13,100  Level Washington Center
Thu 01:16:33 PM 35.1439 -79.5292 140° Southeast 267 307 13,100  Level Washington Center
Thu 01:17:33 PM 35.0789 -79.4803 148° Southeast 278 320 13,100  Level Washington Center
Thu 01:18:34 PM 35.0139 -79.4264 146° Southeast 278 320 13,100  Level Washington Center
Thu 01:19:34 PM 34.9633 -79.3708 138° Southeast 278 320 13,100  Level Washington Center
Thu 01:20:32 PM 34.9625 -79.2694 91° East 253 291 13,100  Level Washington Center
Thu 01:21:32 PM 34.9717 -79.1708 84° East 263 303 13,100  Level Washington Center
Thu 01:22:33 PM 34.9747 -79.0697 88° East 277 319 13,100  Level Washington Center
Thu 01:23:33 PM 34.9819 -78.9558 86° East 295 339 13,100  Level Washington Center
Thu 01:24:33 PM 34.9908 -78.8675 83° East 289 333 13,100  Level Washington Center
Thu 01:25:34 PM 35.0331 -78.7703 62° Northeast 284 327 13,100 -443 Level Washington Center
Thu 01:26:35 PM 35.0686 -78.6828 64° Northeast 284 327 12,200 -988 Descending Washington Center
Thu 01:26:59 PM 35.0883 -78.6456 57° Northeast 304 350 11,700 -1,053 Descending Washington Center
Thu 01:27:32 PM 35.1128 -78.5881 63° Northeast 292 336 11,200 -575 Descending Washington Center
Thu 01:28:12 PM 35.1394 -78.5306 60° Northeast 315 362 11,000 -98 Descending Washington Center
Thu 01:28:33 PM 35.1547 -78.4956 62° Northeast 302 348 11,100  Climbing Washington Center
Thu 01:29:12 PM 35.1814 -78.4331 62° Northeast 306 352 11,000 -100 Descending Washington Center
Thu 01:29:33 PM 35.1944 -78.4056 60° Northeast 302 348 11,000 -393 Level Washington Center
Thu 01:30:13 PM 35.2186 -78.3506 62° Northeast 300 345 10,600 -915 Descending Washington Center
Thu 01:30:32 PM 35.2342 -78.3156 61° Northeast 302 348 10,100 -1,574 Descending Washington Center
Thu 01:31:14 PM 35.2606 -78.2528 63° Northeast 311 358 9,000 -1,500 Descending Washington Center
Thu 01:31:32 PM 35.2739 -78.2203 63° Northeast 302 348 8,600 -1,377 Descending Washington Center
Thu 01:32:15 PM 35.2981 -78.1597 64° Northeast 314 361 7,600 -1,452 Descending Washington Center
Thu 01:32:34 PM 35.3156 -78.1247 58° Northeast 302 348 7,100 -1,574 Descending Washington Center
Thu 01:33:16 PM 35.3417 -78.0669 61° Northeast 302 348 6,000 -1,377 Descending Washington Center
Thu 01:33:35 PM 35.3550 -78.0394 59° Northeast 292 336 5,700 -789 Descending Washington Center
Thu 01:34:32 PM 35.3900 -77.9539 63° Northeast 298 343 5,000 -403 Descending Washington Center
Thu 01:35:34 PM 35.4269 -77.8758 60° Northeast 283 326 4,900 -541 Descending Washington Center
Thu 01:36:34 PM 35.4619 -77.7928 63° Northeast 271 312 3,900 -1,026 Descending Washington Center
Thu 01:37:31 PM 35.4947 -77.7147 63° Northeast 259 298 2,900 -807 Descending Washington Center
Thu 01:38:33 PM 35.5231 -77.6464 63° Northeast 243 280 2,300 -293 Descending Washington Center
Thu 01:39:34 PM 35.5511 -77.5808 62° Northeast 223 257 2,300  Level Washington Center
Thu 01:40:32 PM 35.5753 -77.5150 66° East 217 250 2,300 -202 Level Washington Center
Thu 01:41:33 PM 35.5931 -77.4414 73° East 217 250 1,900 -344 Descending Washington Center
Thu 01:42:34 PM 35.6086 -77.3753 74° East 211 243 1,600 -295 Descending Washington Center

Login

Don't have an account? Register now (free) for customized features, flight alerts, and more!